createdAt,value
2023-05-13T00:01:55.855Z,98030.81
2023-05-13T00:04:22.227Z,97891.44
2023-05-13T00:06:48.790Z,97794.59
2023-05-13T00:09:15.320Z,97800.50
2023-05-13T00:11:41.741Z,97758.63
2023-05-13T00:14:10.562Z,97754.59
2023-05-13T00:16:37.041Z,97803.44
2023-05-13T00:19:03.556Z,97751.78
2023-05-13T00:21:30.171Z,97706.34
2023-05-13T00:23:57.068Z,97774.53
2023-05-13T00:26:23.461Z,97753.75
2023-05-13T00:28:49.812Z,97766.19
2023-05-13T00:31:16.663Z,97767.25
2023-05-13T00:33:43.082Z,97770.94
2023-05-13T00:36:10.367Z,97790.56
2023-05-13T00:38:37.133Z,97863.72
2023-05-13T00:41:03.731Z,97816.63
2023-05-13T00:43:30.714Z,97785.34
2023-05-13T00:45:57.131Z,97723.22
2023-05-13T00:48:23.565Z,97819.41
2023-05-13T00:50:50.153Z,97944.28
2023-05-13T00:53:16.670Z,97873.66
2023-05-13T00:55:43.953Z,97830.28
2023-05-13T00:58:11.505Z,97860.66
2023-05-13T01:00:41.708Z,97872.59
2023-05-13T01:03:13.468Z,97856.25
2023-05-13T01:05:51.999Z,97875.94
2023-05-13T01:08:29.230Z,97887.41
2023-05-13T01:11:05.246Z,97906.75
2023-05-13T01:13:33.608Z,97903.66
2023-05-13T01:16:09.369Z,97910.56
2023-05-13T01:18:45.009Z,97845.97
2023-05-13T01:21:11.558Z,97833.81
2023-05-13T01:23:38.028Z,97813.88
2023-05-13T01:26:04.494Z,97832.94
2023-05-13T01:28:30.821Z,97799.66
2023-05-13T01:30:57.417Z,97829.84
2023-05-13T01:33:24.256Z,97854.69
2023-05-13T01:35:50.621Z,97873.22
2023-05-13T01:38:17.136Z,97904.97
2023-05-13T01:40:43.719Z,97872.13
2023-05-13T01:43:10.144Z,97839.91
2023-05-13T01:45:36.835Z,97806.72
2023-05-13T01:48:03.583Z,97777.09
2023-05-13T01:50:30.090Z,97790.34
2023-05-13T01:52:57.345Z,97773.03
2023-05-13T01:55:23.731Z,97813.97
2023-05-13T01:57:50.071Z,97845.84
2023-05-13T02:00:16.795Z,97807.16
2023-05-13T02:02:43.423Z,97828.19
2023-05-13T02:05:09.930Z,97816.84
2023-05-13T02:07:36.496Z,97803.84
2023-05-13T02:10:02.948Z,97804.06
2023-05-13T02:12:29.307Z,97808.72
2023-05-13T02:14:55.736Z,97829.13
2023-05-13T02:17:22.689Z,97817.56
2023-05-13T02:19:49.170Z,97822.44
2023-05-13T02:22:15.604Z,97859.78
2023-05-13T02:24:42.093Z,97896.47
2023-05-13T02:27:08.455Z,97934.28
2023-05-13T02:29:34.811Z,98005.44
2023-05-13T02:32:01.246Z,97999.94
2023-05-13T02:34:27.616Z,98030.63
2023-05-13T02:36:53.954Z,98044.06
2023-05-13T02:39:21.445Z,98022.84
2023-05-13T02:41:47.892Z,98041.66
2023-05-13T02:44:14.230Z,98035.47
2023-05-13T02:46:40.872Z,98008.06
2023-05-13T02:49:07.218Z,97981.69
2023-05-13T02:51:33.566Z,97961.78
2023-05-13T02:54:00.140Z,97997.47
2023-05-13T02:56:26.813Z,98037.47
2023-05-13T02:58:53.184Z,97976.00
2023-05-13T03:01:19.624Z,98017.22
2023-05-13T03:03:46.240Z,98064.06
2023-05-13T03:06:12.620Z,98040.34
2023-05-13T03:08:39.222Z,98014.09
2023-05-13T03:11:05.691Z,98035.91
2023-05-13T03:13:32.031Z,98021.69
2023-05-13T03:15:58.430Z,98029.09
2023-05-13T03:18:24.847Z,98018.84
2023-05-13T03:20:51.274Z,97977.78
2023-05-13T03:23:17.678Z,97963.97
2023-05-13T03:25:44.022Z,97970.59
2023-05-13T03:28:10.435Z,97937.81
2023-05-13T03:30:36.853Z,97926.16
2023-05-13T03:33:03.394Z,97910.56
2023-05-13T03:35:29.802Z,97869.66
2023-05-13T03:37:56.362Z,97925.63
2023-05-13T03:40:22.914Z,97885.84
2023-05-13T03:42:49.390Z,97828.66
2023-05-13T03:45:15.762Z,97831.13
2023-05-13T03:47:42.206Z,97897.59
2023-05-13T03:50:09.227Z,97814.09
2023-05-13T03:52:35.791Z,97786.94
2023-05-13T03:55:02.143Z,97766.09
2023-05-13T03:57:28.515Z,97708.50
2023-05-13T03:59:55.018Z,97701.72
2023-05-13T04:02:22.690Z,97690.38
2023-05-13T04:04:49.204Z,97682.63
2023-05-13T04:07:15.816Z,97643.44
2023-05-13T04:09:42.155Z,97584.56
2023-05-13T04:12:08.521Z,97598.16
2023-05-13T04:14:35.394Z,97573.38
2023-05-13T04:17:01.780Z,97542.41
2023-05-13T04:19:28.176Z,97539.41
2023-05-13T04:21:54.546Z,97602.06
2023-05-13T04:24:20.893Z,97625.44
2023-05-13T04:26:47.277Z,97634.38
2023-05-13T04:29:13.839Z,97568.25
2023-05-13T04:31:40.198Z,97575.06
2023-05-13T04:34:06.537Z,97523.31
2023-05-13T04:36:33.105Z,97576.25
2023-05-13T04:38:59.470Z,97635.59
2023-05-13T04:41:25.831Z,97632.13
2023-05-13T04:43:52.392Z,97577.78
2023-05-13T04:46:18.774Z,97560.75
2023-05-13T04:48:48.348Z,97588.16
2023-05-13T04:51:16.063Z,97679.47
2023-05-13T04:53:43.003Z,97740.75
2023-05-13T04:56:09.449Z,97728.09
2023-05-13T04:58:36.111Z,97787.50
2023-05-13T05:01:02.446Z,97850.69
2023-05-13T05:03:28.878Z,97839.03
2023-05-13T05:05:55.586Z,97848.47
2023-05-13T05:08:21.939Z,97876.00
2023-05-13T05:10:48.284Z,97871.47
2023-05-13T05:13:14.819Z,97853.91
2023-05-13T05:15:41.780Z,97844.75
2023-05-13T05:18:08.469Z,97688.53
2023-05-13T05:20:35.065Z,97707.63
2023-05-13T05:23:01.690Z,97727.41
2023-05-13T05:25:28.363Z,97741.47
2023-05-13T05:27:54.999Z,97711.22
2023-05-13T05:30:21.613Z,97662.91
2023-05-13T05:32:48.194Z,97610.34
2023-05-13T05:35:16.377Z,97598.78
2023-05-13T05:37:42.729Z,97563.81
2023-05-13T05:40:09.546Z,97676.16
2023-05-13T05:42:35.986Z,97777.34
2023-05-13T05:45:02.348Z,97855.91
2023-05-13T05:47:28.724Z,97887.78
2023-05-13T05:49:55.297Z,97962.31
2023-05-13T05:52:21.642Z,97989.09
2023-05-13T05:54:47.968Z,97994.72
2023-05-13T05:57:14.535Z,98031.25
2023-05-13T05:59:40.878Z,98113.03
2023-05-13T06:02:07.724Z,98027.59
2023-05-13T06:04:34.366Z,98050.66
2023-05-13T06:07:00.875Z,98131.44
2023-05-13T06:09:27.266Z,98129.56
2023-05-13T06:11:53.675Z,98227.38
2023-05-13T06:14:20.051Z,98174.09
2023-05-13T06:16:46.635Z,98210.44
2023-05-13T06:19:13.822Z,98146.50
2023-05-13T06:21:40.277Z,98092.31
2023-05-13T06:24:07.065Z,98134.41
2023-05-13T06:26:33.434Z,98141.13
2023-05-13T06:28:59.769Z,98172.00
2023-05-13T06:31:26.668Z,98253.34
2023-05-13T06:33:53.060Z,98404.88
2023-05-13T06:36:19.428Z,98468.72
2023-05-13T06:38:45.791Z,98562.44
2023-05-13T06:41:12.355Z,98546.69
2023-05-13T06:43:39.013Z,98495.38
2023-05-13T06:46:05.429Z,98521.25
2023-05-13T06:48:31.938Z,98447.00
2023-05-13T06:50:58.309Z,98420.56
2023-05-13T06:53:24.719Z,98422.94
2023-05-13T06:55:51.379Z,98489.56
2023-05-13T06:58:17.764Z,98488.28
2023-05-13T07:00:46.552Z,98490.69
2023-05-13T07:03:13.121Z,98521.00
2023-05-13T07:05:40.014Z,98534.75
2023-05-13T07:08:09.251Z,98431.72
2023-05-13T07:10:35.927Z,98430.28
2023-05-13T07:13:02.442Z,98507.84
2023-05-13T07:15:28.847Z,98585.41
2023-05-13T07:17:55.455Z,98642.00
2023-05-13T07:20:23.165Z,98619.50
2023-05-13T07:22:49.812Z,98711.19
2023-05-13T07:25:17.062Z,98740.06
2023-05-13T07:27:43.775Z,98798.84
2023-05-13T07:30:11.547Z,98812.75
2023-05-13T07:32:38.824Z,98753.59
2023-05-13T07:35:05.647Z,98827.91
2023-05-13T07:37:32.025Z,98891.19
2023-05-13T07:40:01.425Z,98941.84
2023-05-13T07:42:29.844Z,98949.03
2023-05-13T07:44:56.491Z,98945.72
2023-05-13T07:47:23.511Z,98882.38
2023-05-13T07:49:49.991Z,98915.09
2023-05-13T07:52:16.530Z,99001.03
2023-05-13T07:54:43.119Z,98985.34
2023-05-13T07:57:09.475Z,98994.22
2023-05-13T07:59:35.910Z,98951.81
2023-05-13T08:02:02.363Z,98960.13
2023-05-13T08:04:28.734Z,99034.47
2023-05-13T08:06:55.138Z,99029.75
2023-05-13T08:09:21.771Z,99030.75
2023-05-13T08:11:48.358Z,99140.00
2023-05-13T08:14:14.708Z,99098.38
2023-05-13T08:16:41.153Z,99138.56
2023-05-13T08:19:07.574Z,99129.44
2023-05-13T08:21:33.943Z,99181.97
2023-05-13T08:24:00.518Z,99163.53
2023-05-13T08:26:26.974Z,99197.84
2023-05-13T08:28:54.654Z,99175.56
2023-05-13T08:31:21.751Z,99179.56
2023-05-13T08:33:48.557Z,99231.78
2023-05-13T08:36:15.117Z,99185.66
2023-05-13T08:38:43.663Z,99203.59
2023-05-13T08:41:12.672Z,99207.75
2023-05-13T08:43:39.580Z,99223.88
2023-05-13T08:46:07.873Z,99187.72
2023-05-13T08:48:34.261Z,99223.03
2023-05-13T08:51:02.231Z,99211.47
2023-05-13T08:53:29.020Z,99279.34
2023-05-13T08:55:55.354Z,99362.06
2023-05-13T08:58:21.677Z,99563.03
2023-05-13T09:00:51.816Z,99985.81
2023-05-13T09:03:18.740Z,100588.03
2023-05-13T09:05:45.122Z,100691.66
2023-05-13T09:08:12.328Z,100755.91
2023-05-13T09:10:38.882Z,100785.78
2023-05-13T09:13:05.997Z,100793.94
2023-05-13T09:15:33.166Z,100838.31
2023-05-13T09:18:00.343Z,100836.69
2023-05-13T09:20:26.809Z,100879.44
2023-05-13T09:23:05.192Z,100899.19
2023-05-13T09:25:31.653Z,101129.91
2023-05-13T09:27:59.430Z,101286.44
2023-05-13T09:30:26.728Z,101281.72
2023-05-13T09:33:12.212Z,101289.38
2023-05-13T09:35:43.507Z,101283.91
2023-05-13T09:38:14.208Z,101297.72
2023-05-13T09:40:41.041Z,101298.34
2023-05-13T09:43:08.193Z,101292.78
2023-05-13T09:45:34.589Z,101297.41
2023-05-13T09:48:01.001Z,101287.59
2023-05-13T09:50:27.620Z,101290.19
2023-05-13T09:52:53.994Z,101283.91
2023-05-13T09:55:20.555Z,101289.56
2023-05-13T09:57:47.658Z,101290.63
2023-05-13T10:00:24.789Z,101284.22
2023-05-13T10:02:58.573Z,101277.97
2023-05-13T10:05:24.993Z,101283.91
2023-05-13T10:07:51.326Z,101276.84
2023-05-13T10:10:17.921Z,101281.81
2023-05-13T10:12:44.311Z,101277.41
2023-05-13T10:15:10.848Z,101285.84
2023-05-13T10:17:37.486Z,101284.50
2023-05-13T10:20:05.013Z,101274.53
2023-05-13T10:22:32.159Z,101286.66
2023-05-13T10:24:59.389Z,101272.31
2023-05-13T10:27:30.686Z,101268.25
2023-05-13T10:29:57.929Z,101278.63
2023-05-13T10:32:25.383Z,101276.72
2023-05-13T10:35:10.188Z,101268.97
2023-05-13T10:38:15.127Z,101263.81
2023-05-13T10:40:50.410Z,101271.84
2023-05-13T10:43:37.415Z,101271.31
2023-05-13T10:46:07.283Z,101267.53
2023-05-13T10:48:43.760Z,101274.28
2023-05-13T10:51:13.675Z,101271.22
2023-05-13T10:53:44.500Z,101267.91
2023-05-13T10:56:10.847Z,101263.91
2023-05-13T10:58:38.298Z,101266.59
2023-05-13T11:01:32.069Z,101262.41
2023-05-13T11:04:03.287Z,101267.94
2023-05-13T11:06:37.341Z,101259.16
2023-05-13T11:09:28.806Z,101265.00
2023-05-13T11:11:56.887Z,101256.88
2023-05-13T11:14:24.128Z,101256.38
2023-05-13T11:17:00.015Z,101261.72
2023-05-13T11:19:30.569Z,101265.53
2023-05-13T11:22:21.050Z,101265.91
2023-05-13T11:25:03.975Z,101249.31
2023-05-13T11:27:32.938Z,101253.75
2023-05-13T11:29:59.293Z,101249.03
2023-05-13T11:32:56.879Z,101255.63
2023-05-13T11:35:28.049Z,101254.72
2023-05-13T11:38:00.383Z,101248.97
2023-05-13T11:40:30.886Z,101239.59
2023-05-13T11:42:57.268Z,101249.88
2023-05-13T11:45:24.594Z,101238.22
2023-05-13T11:47:52.466Z,101248.00
2023-05-13T11:50:30.145Z,101249.31
2023-05-13T11:52:57.907Z,101238.19
2023-05-13T11:55:31.619Z,101242.31
2023-05-13T11:57:58.640Z,101222.81
2023-05-13T12:00:34.946Z,101235.91
2023-05-13T12:03:03.153Z,101234.88
2023-05-13T12:05:30.110Z,101240.78
2023-05-13T12:07:57.505Z,101249.03
2023-05-13T12:10:24.605Z,101242.88
2023-05-13T12:12:50.993Z,101230.69
2023-05-13T12:15:18.405Z,101234.66
2023-05-13T12:17:45.233Z,101235.28
2023-05-13T12:20:13.261Z,101244.81
2023-05-13T12:22:42.908Z,101252.72
2023-05-13T12:25:47.629Z,101243.03
2023-05-13T12:28:14.135Z,101239.44
2023-05-13T12:30:41.880Z,101230.31
2023-05-13T12:33:19.048Z,101224.63
2023-05-13T12:35:48.343Z,101235.97
2023-05-13T12:38:19.675Z,101230.69
2023-05-13T12:40:46.817Z,101244.13
2023-05-13T12:43:13.379Z,101230.66
2023-05-13T12:45:43.249Z,101219.72
2023-05-13T12:48:11.890Z,101226.09
2023-05-13T12:50:38.349Z,101210.44
2023-05-13T12:53:05.733Z,101211.63
2023-05-13T12:55:32.218Z,101219.78
2023-05-13T12:58:02.883Z,101198.97
2023-05-13T13:00:30.133Z,101207.19
2023-05-13T13:02:56.936Z,101202.94
2023-05-13T13:05:24.277Z,101203.88
2023-05-13T13:07:50.919Z,101211.47
2023-05-13T13:10:17.342Z,101210.41
2023-05-13T13:12:43.710Z,101211.66
2023-05-13T13:15:10.891Z,101203.84
2023-05-13T13:17:37.323Z,101202.59
2023-05-13T13:20:04.858Z,101200.56
2023-05-13T13:22:31.667Z,101201.84
2023-05-13T13:24:58.045Z,101196.03
2023-05-13T13:27:24.412Z,101196.16
2023-05-13T13:29:50.796Z,101201.59
2023-05-13T13:32:17.178Z,101192.63
2023-05-13T13:34:43.593Z,101201.81
2023-05-13T13:37:10.072Z,101193.59
2023-05-13T13:39:36.511Z,101201.06
2023-05-13T13:42:04.643Z,101198.25
2023-05-13T13:44:31.842Z,101196.94
2023-05-13T13:46:59.041Z,101186.56
2023-05-13T13:49:25.601Z,101183.00
2023-05-13T13:51:52.988Z,101184.38
2023-05-13T13:54:19.676Z,101177.72
2023-05-13T13:56:46.104Z,101179.00
2023-05-13T13:59:12.677Z,101177.41
2023-05-13T14:01:40.216Z,101174.44
2023-05-13T14:04:27.599Z,101173.63
2023-05-13T14:06:55.444Z,101171.03
2023-05-13T14:09:21.859Z,101175.75
2023-05-13T14:11:48.463Z,101181.47
2023-05-13T14:14:14.880Z,101169.13
2023-05-13T14:16:41.221Z,101168.78
2023-05-13T14:19:07.797Z,101174.44
2023-05-13T14:21:34.828Z,101178.13
2023-05-13T14:24:01.178Z,101171.53
2023-05-13T14:26:27.608Z,101176.75
2023-05-13T14:28:54.181Z,101176.34
2023-05-13T14:31:21.101Z,101177.69
2023-05-13T14:33:47.533Z,101175.75
2023-05-13T14:36:16.418Z,101174.41
2023-05-13T14:38:45.930Z,101174.59
2023-05-13T14:41:12.576Z,101173.28
2023-05-13T14:43:39.259Z,101177.34
2023-05-13T14:46:05.709Z,101167.53
2023-05-13T14:48:32.041Z,101170.03
2023-05-13T14:50:58.605Z,101163.50
2023-05-13T14:53:24.941Z,101161.81
2023-05-13T14:55:51.753Z,101167.47
2023-05-13T14:58:18.252Z,101168.78
2023-05-13T15:00:44.693Z,101165.72
2023-05-13T15:03:12.014Z,101160.91
2023-05-13T15:05:38.716Z,101148.63
2023-05-13T15:08:05.153Z,101153.53
2023-05-13T15:10:31.907Z,101154.09
2023-05-13T15:12:58.956Z,101145.00
2023-05-13T15:15:25.323Z,101146.00
2023-05-13T15:17:52.099Z,101144.94
2023-05-13T15:20:18.489Z,101149.78
2023-05-13T15:22:45.193Z,101142.44
2023-05-13T15:25:11.658Z,101146.13
2023-05-13T15:27:38.028Z,101151.53
2023-05-13T15:30:05.392Z,101145.03
2023-05-13T15:32:31.780Z,101148.59
2023-05-13T15:34:58.189Z,101146.69
2023-05-13T15:37:24.608Z,101154.91
2023-05-13T15:39:50.984Z,101141.75
2023-05-13T15:42:17.326Z,101146.78
2023-05-13T15:44:45.672Z,101144.66
2023-05-13T15:47:12.458Z,101148.53
2023-05-13T15:49:38.931Z,101148.59
2023-05-13T15:52:07.152Z,101150.84
2023-05-13T15:54:33.752Z,101156.75
2023-05-13T15:57:00.165Z,101152.91
2023-05-13T15:59:26.725Z,101149.59
2023-05-13T16:01:53.200Z,101136.88
2023-05-13T16:04:19.663Z,101131.91
2023-05-13T16:06:46.229Z,101132.63
2023-05-13T16:09:12.713Z,101133.81
2023-05-13T16:11:39.098Z,101126.34
2023-05-13T16:14:07.481Z,101134.53
2023-05-13T16:16:33.879Z,101135.06
2023-05-13T16:19:02.420Z,101123.22
2023-05-13T16:21:29.992Z,101129.19
2023-05-13T16:23:56.380Z,101124.94
2023-05-13T16:26:22.805Z,101121.09
2023-05-13T16:28:49.153Z,101113.56
2023-05-13T16:31:15.610Z,101109.16
2023-05-13T16:33:41.998Z,101111.94
2023-05-13T16:36:09.876Z,101117.13
2023-05-13T16:38:36.345Z,101128.53
2023-05-13T16:41:03.721Z,101112.28
2023-05-13T16:43:30.111Z,101131.22
2023-05-13T16:45:56.443Z,101123.81
2023-05-13T16:48:22.860Z,101121.06
2023-05-13T16:50:49.429Z,101131.44
2023-05-13T16:53:15.866Z,101138.41
2023-05-13T16:55:42.452Z,101142.09
2023-05-13T16:58:08.823Z,101141.53
2023-05-13T17:00:35.169Z,101135.78
2023-05-13T17:03:01.659Z,101141.13
2023-05-13T17:05:29.920Z,101147.47
2023-05-13T17:07:56.404Z,101142.50
2023-05-13T17:10:23.181Z,101136.97
2023-05-13T17:12:49.627Z,101141.44
2023-05-13T17:15:16.166Z,101140.41
2023-05-13T17:17:42.553Z,101135.47
2023-05-13T17:20:09.535Z,101138.91
2023-05-13T17:22:35.888Z,101137.44
2023-05-13T17:25:02.263Z,101131.03
2023-05-13T17:27:28.649Z,101130.16
2023-05-13T17:29:55.043Z,101134.47
2023-05-13T17:32:22.406Z,101133.53
2023-05-13T17:34:48.775Z,101137.19
2023-05-13T17:37:15.118Z,101125.34
2023-05-13T17:39:41.453Z,101130.41
2023-05-13T17:42:07.940Z,101132.84
2023-05-13T17:44:34.346Z,101125.53
2023-05-13T17:47:01.020Z,101128.09
2023-05-13T17:49:27.370Z,101120.88
2023-05-13T17:51:53.741Z,101124.88
2023-05-13T17:54:20.304Z,101130.41
2023-05-13T17:56:46.654Z,101129.03
2023-05-13T17:59:13.032Z,101129.59
2023-05-13T18:01:39.509Z,101130.97
2023-05-13T18:04:06.078Z,101125.44
2023-05-13T18:06:32.472Z,101126.00
2023-05-13T18:08:58.925Z,101127.53
2023-05-13T18:11:26.261Z,101126.38
2023-05-13T18:13:52.968Z,101130.13
2023-05-13T18:16:19.740Z,101134.19
2023-05-13T18:18:48.481Z,101135.28
2023-05-13T18:21:14.929Z,101132.72
2023-05-13T18:23:41.642Z,101135.66
2023-05-13T18:26:07.995Z,101132.94
2023-05-13T18:28:34.399Z,101141.59
2023-05-13T18:31:00.838Z,101138.06
2023-05-13T18:33:27.224Z,101142.34
2023-05-13T18:35:54.061Z,101137.72
2023-05-13T18:38:20.433Z,101139.50
2023-05-13T18:40:46.809Z,101141.09
2023-05-13T18:43:13.590Z,101139.88
2023-05-13T18:45:40.006Z,101128.16
2023-05-13T18:48:06.520Z,101136.75
2023-05-13T18:50:33.069Z,101136.31
2023-05-13T18:52:59.444Z,101133.53
2023-05-13T18:55:25.843Z,101138.50
2023-05-13T18:57:52.207Z,101139.91
2023-05-13T19:00:19.257Z,101136.94
2023-05-13T19:02:45.971Z,101142.69
2023-05-13T19:05:12.398Z,101151.19
2023-05-13T19:07:38.801Z,101149.03
2023-05-13T19:10:05.624Z,101158.41
2023-05-13T19:12:31.981Z,101149.63
2023-05-13T19:14:58.370Z,101149.94
2023-05-13T19:17:24.764Z,101150.25
2023-05-13T19:19:51.169Z,101149.56
2023-05-13T19:22:17.732Z,101152.81
2023-05-13T19:24:44.113Z,101154.19
2023-05-13T19:27:11.166Z,101151.09
2023-05-13T19:29:37.542Z,101157.81
2023-05-13T19:32:04.063Z,101161.03
2023-05-13T19:34:30.640Z,101171.88
2023-05-13T19:36:57.071Z,101183.66
2023-05-13T19:39:23.435Z,101192.81
2023-05-13T19:41:49.909Z,101182.75
2023-05-13T19:44:16.310Z,101185.06
2023-05-13T19:46:42.736Z,101185.94
2023-05-13T19:49:09.163Z,101185.94
2023-05-13T19:51:35.693Z,101186.31
2023-05-13T19:54:02.144Z,101190.31
2023-05-13T19:56:28.798Z,101191.53
2023-05-13T19:58:55.191Z,101185.66
2023-05-13T20:01:21.558Z,101191.09
2023-05-13T20:03:48.063Z,101188.63
2023-05-13T20:06:14.547Z,101187.22
2023-05-13T20:08:41.224Z,101177.78
2023-05-13T20:11:07.645Z,101181.38
2023-05-13T20:13:34.029Z,101171.94
2023-05-13T20:16:00.439Z,101169.69
2023-05-13T20:18:26.915Z,101133.00
2023-05-13T20:20:53.642Z,101119.22
2023-05-13T20:23:20.051Z,101063.00
2023-05-13T20:25:47.047Z,101063.31
2023-05-13T20:28:13.424Z,101023.03
2023-05-13T20:30:42.870Z,100974.78
2023-05-13T20:33:09.273Z,100928.47
2023-05-13T20:35:36.897Z,100848.69
2023-05-13T20:38:03.233Z,100816.50
2023-05-13T20:40:29.606Z,100744.56
2023-05-13T20:42:56.000Z,100610.94
2023-05-13T20:45:22.592Z,100556.34
2023-05-13T20:47:48.935Z,100547.66
2023-05-13T20:50:15.486Z,100407.13
2023-05-13T20:52:42.097Z,100308.78
2023-05-13T20:55:09.030Z,100073.03
2023-05-13T20:57:35.618Z,99641.00
2023-05-13T21:00:02.184Z,99575.75
2023-05-13T21:02:28.628Z,99449.00
2023-05-13T21:04:55.016Z,99347.88
2023-05-13T21:07:21.365Z,99381.69
2023-05-13T21:09:47.759Z,99396.53
2023-05-13T21:12:14.130Z,99389.47
2023-05-13T21:14:40.813Z,99367.47
2023-05-13T21:17:07.661Z,99306.25
2023-05-13T21:19:34.607Z,99273.50
2023-05-13T21:22:04.984Z,99217.72
2023-05-13T21:24:31.577Z,99152.25
2023-05-13T21:26:57.923Z,99154.56
2023-05-13T21:29:24.288Z,99149.69
2023-05-13T21:31:50.720Z,99163.84
2023-05-13T21:34:17.103Z,99188.94
2023-05-13T21:36:44.482Z,99195.69
2023-05-13T21:39:11.076Z,99202.00
2023-05-13T21:41:37.726Z,99194.63
2023-05-13T21:44:04.253Z,99195.38
2023-05-13T21:46:30.607Z,99209.50
2023-05-13T21:48:58.714Z,99214.06
2023-05-13T21:51:27.840Z,99198.84
2023-05-13T21:53:54.234Z,99190.16
2023-05-13T21:56:21.507Z,99202.63
2023-05-13T21:58:49.169Z,99199.44
2023-05-13T22:01:15.584Z,99209.03
2023-05-13T22:03:42.070Z,99201.13
2023-05-13T22:06:08.487Z,99175.16
2023-05-13T22:08:34.892Z,99193.06
2023-05-13T22:11:01.361Z,99200.97
2023-05-13T22:13:28.065Z,99201.25
2023-05-13T22:15:54.506Z,99201.66
2023-05-13T22:18:21.062Z,99185.22
2023-05-13T22:20:47.594Z,99174.22
2023-05-13T22:23:13.979Z,99172.22
2023-05-13T22:25:40.428Z,99165.66
2023-05-13T22:28:07.807Z,99163.97
2023-05-13T22:30:34.634Z,99166.03
2023-05-13T22:33:01.004Z,99157.59
2023-05-13T22:35:28.909Z,99139.31
2023-05-13T22:37:55.434Z,99131.81
2023-05-13T22:40:22.635Z,99128.81
2023-05-13T22:42:49.312Z,99144.34
2023-05-13T22:45:15.801Z,99128.94
2023-05-13T22:47:42.347Z,99130.38
2023-05-13T22:50:09.022Z,99114.75
2023-05-13T22:52:35.422Z,99113.47
2023-05-13T22:55:01.979Z,99128.78
2023-05-13T22:57:28.349Z,99104.63
2023-05-13T22:59:54.748Z,99132.06
2023-05-13T23:02:21.135Z,99126.03
2023-05-13T23:04:47.493Z,99115.63
2023-05-13T23:07:13.837Z,99106.31
2023-05-13T23:09:40.401Z,99087.34
2023-05-13T23:12:07.393Z,99084.16
2023-05-13T23:14:33.767Z,99095.72
2023-05-13T23:17:00.204Z,99071.44
2023-05-13T23:19:26.607Z,99070.06
2023-05-13T23:21:52.997Z,99060.78
2023-05-13T23:24:19.377Z,99036.00
2023-05-13T23:26:47.403Z,99013.91
2023-05-13T23:29:14.027Z,99019.25
2023-05-13T23:31:40.507Z,99016.25
2023-05-13T23:34:07.925Z,99018.53
2023-05-13T23:36:34.596Z,99017.66
2023-05-13T23:39:01.061Z,98994.31
2023-05-13T23:41:27.687Z,99007.53
2023-05-13T23:43:54.059Z,98995.97
2023-05-13T23:46:21.113Z,99014.31
2023-05-13T23:48:47.673Z,99007.63
2023-05-13T23:51:14.020Z,99014.00
2023-05-13T23:53:40.653Z,98995.03
2023-05-13T23:56:07.181Z,98997.09
2023-05-13T23:58:33.540Z,99003.47
